createdAt,value
2023-03-03T00:00:56.549Z,4.21
2023-03-03T00:03:24.885Z,4.24
2023-03-03T00:05:52.465Z,4.12
2023-03-03T00:08:20.516Z,4.04
2023-03-03T00:10:47.464Z,3.90
2023-03-03T00:13:22.564Z,4.00
2023-03-03T00:15:50.264Z,4.05
2023-03-03T00:18:31.369Z,4.12
2023-03-03T00:21:01.103Z,4.17
2023-03-03T00:23:40.740Z,4.11
2023-03-03T00:26:21.606Z,4.09
2023-03-03T00:28:50.627Z,4.15
2023-03-03T00:31:25.462Z,4.04
2023-03-03T00:33:54.826Z,4.14
2023-03-03T00:36:28.860Z,3.92
2023-03-03T00:39:00.211Z,3.83
2023-03-03T00:41:27.917Z,3.88
2023-03-03T00:43:54.698Z,3.83
2023-03-03T00:46:23.729Z,3.82
2023-03-03T00:48:51.572Z,3.77
2023-03-03T00:51:20.958Z,3.69
2023-03-03T00:53:47.302Z,3.66
2023-03-03T00:56:14.491Z,3.55
2023-03-03T00:58:41.204Z,3.53
2023-03-03T01:01:07.864Z,3.52
2023-03-03T01:03:34.315Z,3.46
2023-03-03T01:06:00.818Z,3.30
2023-03-03T01:08:27.304Z,3.28
2023-03-03T01:10:57.020Z,3.28
2023-03-03T01:13:27.428Z,3.14
2023-03-03T01:15:54.344Z,2.98
2023-03-03T01:18:27.527Z,3.02
2023-03-03T01:20:54.059Z,3.01
2023-03-03T01:23:20.576Z,2.97
2023-03-03T01:25:47.096Z,2.90
2023-03-03T01:28:13.651Z,2.79
2023-03-03T01:30:40.155Z,2.81
2023-03-03T01:33:06.581Z,2.76
2023-03-03T01:35:33.114Z,2.84
2023-03-03T01:37:59.652Z,3.07
2023-03-03T01:40:28.860Z,3.26
2023-03-03T01:42:55.140Z,3.23
2023-03-03T01:45:26.007Z,3.22
2023-03-03T01:48:03.025Z,3.13
2023-03-03T01:50:46.269Z,3.14
2023-03-03T01:53:18.503Z,3.08
2023-03-03T01:55:47.458Z,3.02
2023-03-03T01:58:45.495Z,2.97
2023-03-03T02:01:15.586Z,2.95
2023-03-03T02:03:43.846Z,2.94
2023-03-03T02:06:15.585Z,3.02
2023-03-03T02:09:07.770Z,2.81
2023-03-03T02:11:37.381Z,2.82
2023-03-03T02:14:04.296Z,2.81
2023-03-03T02:16:31.089Z,2.73
2023-03-03T02:18:57.741Z,2.67
2023-03-03T02:21:28.448Z,2.74
2023-03-03T02:24:10.967Z,2.69
2023-03-03T02:26:41.316Z,2.68
2023-03-03T02:29:09.886Z,2.69
2023-03-03T02:31:37.318Z,2.58
2023-03-03T02:34:04.132Z,2.64
2023-03-03T02:36:33.406Z,2.62
2023-03-03T02:39:07.060Z,2.68
2023-03-03T02:41:40.545Z,2.63
2023-03-03T02:44:10.436Z,2.63
2023-03-03T02:46:40.408Z,2.64
2023-03-03T02:49:08.871Z,2.74
2023-03-03T02:51:35.801Z,2.49
2023-03-03T02:54:02.699Z,2.68
2023-03-03T02:56:29.326Z,2.58
2023-03-03T02:58:56.158Z,2.56
2023-03-03T03:01:23.251Z,2.45
2023-03-03T03:03:50.172Z,2.54
2023-03-03T03:06:16.711Z,2.64
2023-03-03T03:08:43.221Z,2.76
2023-03-03T03:11:09.777Z,2.74
2023-03-03T03:13:36.293Z,2.76
2023-03-03T03:16:02.866Z,2.74
2023-03-03T03:18:29.368Z,2.58
2023-03-03T03:20:55.870Z,2.66
2023-03-03T03:23:22.373Z,2.68
2023-03-03T03:25:49.064Z,2.74
2023-03-03T03:28:17.416Z,2.80
2023-03-03T03:30:45.603Z,2.61
2023-03-03T03:33:12.133Z,2.58
2023-03-03T03:35:40.394Z,2.69
2023-03-03T03:38:06.912Z,2.55
2023-03-03T03:40:33.372Z,2.42
2023-03-03T03:42:59.857Z,2.25
2023-03-03T03:45:26.413Z,2.21
2023-03-03T03:47:52.862Z,2.31
2023-03-03T03:50:19.433Z,2.25
2023-03-03T03:52:45.934Z,2.17
2023-03-03T03:55:12.566Z,2.24
2023-03-03T03:57:39.084Z,2.35
2023-03-03T04:00:06.547Z,2.33
2023-03-03T04:02:35.932Z,2.20
2023-03-03T04:05:03.590Z,2.36
2023-03-03T04:07:30.103Z,2.36
2023-03-03T04:09:56.653Z,2.32
2023-03-03T04:12:23.480Z,2.25
2023-03-03T04:14:50.007Z,2.24
2023-03-03T04:17:18.287Z,2.21
2023-03-03T04:19:44.933Z,2.27
2023-03-03T04:22:12.609Z,2.37
2023-03-03T04:24:40.166Z,2.36
2023-03-03T04:27:08.572Z,2.42
2023-03-03T04:29:35.447Z,2.38
2023-03-03T04:32:02.131Z,2.25
2023-03-03T04:34:28.627Z,2.41
2023-03-03T04:36:55.564Z,2.39
2023-03-03T04:39:22.195Z,2.36
2023-03-03T04:41:48.697Z,2.45
2023-03-03T04:44:15.175Z,2.51
2023-03-03T04:46:41.748Z,2.50
2023-03-03T04:49:10.765Z,2.53
2023-03-03T04:51:38.706Z,2.65
2023-03-03T04:54:05.238Z,2.57
2023-03-03T04:56:31.752Z,2.61
2023-03-03T04:58:58.440Z,2.70
2023-03-03T05:01:24.987Z,2.69
2023-03-03T05:03:51.588Z,2.73
2023-03-03T05:06:18.847Z,2.75
2023-03-03T05:08:46.627Z,2.82
2023-03-03T05:11:13.941Z,2.64
2023-03-03T05:13:40.788Z,2.80
2023-03-03T05:16:08.102Z,2.75
2023-03-03T05:18:34.846Z,2.68
2023-03-03T05:21:01.361Z,2.70
2023-03-03T05:23:29.082Z,2.79
2023-03-03T05:25:55.688Z,2.89
2023-03-03T05:28:22.292Z,2.90
2023-03-03T05:30:48.910Z,2.91
2023-03-03T05:33:17.059Z,2.94
2023-03-03T05:35:44.218Z,2.88
2023-03-03T05:38:11.120Z,2.93
2023-03-03T05:40:38.148Z,3.06
2023-03-03T05:43:04.962Z,2.93
2023-03-03T05:45:31.519Z,2.86
2023-03-03T05:47:58.269Z,2.86
2023-03-03T05:50:24.897Z,2.84
2023-03-03T05:52:52.219Z,2.77
2023-03-03T05:55:19.331Z,2.86
2023-03-03T05:57:46.320Z,2.86
2023-03-03T06:00:14.477Z,2.69
2023-03-03T06:02:42.305Z,2.73
2023-03-03T06:05:09.588Z,2.79
2023-03-03T06:07:36.142Z,2.93
2023-03-03T06:10:03.916Z,3.06
2023-03-03T06:12:30.508Z,3.06
2023-03-03T06:14:57.074Z,2.98
2023-03-03T06:17:23.647Z,2.95
2023-03-03T06:19:50.119Z,2.91
2023-03-03T06:22:16.644Z,2.81
2023-03-03T06:24:43.268Z,2.79
2023-03-03T06:27:10.319Z,2.89
2023-03-03T06:29:36.842Z,2.89
2023-03-03T06:32:03.605Z,2.82
2023-03-03T06:34:30.236Z,2.79
2023-03-03T06:36:57.100Z,2.98
2023-03-03T06:39:23.624Z,3.05
2023-03-03T06:41:50.131Z,3.16
2023-03-03T06:44:17.060Z,3.24
2023-03-03T06:46:43.523Z,3.18
2023-03-03T06:49:10.121Z,3.08
2023-03-03T06:51:39.769Z,3.00
2023-03-03T06:54:18.300Z,3.18
2023-03-03T06:56:46.074Z,3.21
2023-03-03T06:59:18.506Z,3.25
2023-03-03T07:01:46.992Z,3.10
2023-03-03T07:04:19.550Z,3.26
2023-03-03T07:06:46.291Z,3.12
2023-03-03T07:09:23.930Z,3.15
2023-03-03T07:12:10.620Z,2.97
2023-03-03T07:14:51.566Z,2.94
2023-03-03T07:17:20.347Z,3.05
2023-03-03T07:19:48.024Z,2.86
2023-03-03T07:22:16.334Z,3.00
2023-03-03T07:24:51.327Z,2.90
2023-03-03T07:27:24.779Z,2.90
2023-03-03T07:29:54.096Z,2.99
2023-03-03T07:32:39.934Z,3.02
2023-03-03T07:35:41.287Z,3.05
2023-03-03T07:38:30.929Z,3.16
2023-03-03T07:41:00.543Z,3.01
2023-03-03T07:43:29.995Z,3.13
2023-03-03T07:46:03.494Z,3.22
2023-03-03T07:48:42.357Z,3.15
2023-03-03T07:51:22.308Z,3.10
2023-03-03T07:53:49.276Z,3.08
2023-03-03T07:56:30.814Z,3.05
2023-03-03T07:58:58.393Z,3.19
2023-03-03T08:01:41.148Z,3.31
2023-03-03T08:04:18.011Z,3.40
2023-03-03T08:06:53.457Z,3.47
2023-03-03T08:09:20.029Z,3.59
2023-03-03T08:11:53.332Z,3.61
2023-03-03T08:14:38.835Z,3.53
2023-03-03T08:17:21.512Z,3.50
2023-03-03T08:19:49.731Z,3.42
2023-03-03T08:22:19.487Z,3.46
2023-03-03T08:24:46.080Z,3.45
2023-03-03T08:27:12.549Z,3.53
2023-03-03T08:29:39.080Z,3.29
2023-03-03T08:32:05.709Z,3.41
2023-03-03T08:34:32.314Z,3.60
2023-03-03T08:36:58.804Z,3.73
2023-03-03T08:39:25.351Z,3.56
2023-03-03T08:41:51.869Z,3.62
2023-03-03T08:44:20.258Z,3.73
2023-03-03T08:46:46.788Z,3.76
2023-03-03T08:49:13.351Z,3.71
2023-03-03T08:51:40.278Z,3.73
2023-03-03T08:54:07.106Z,3.91
2023-03-03T08:56:33.735Z,3.82
2023-03-03T08:59:02.679Z,3.83
2023-03-03T09:01:33.394Z,3.58
2023-03-03T09:04:00.494Z,3.66
2023-03-03T09:06:27.371Z,3.74
2023-03-03T09:08:54.903Z,3.74
2023-03-03T09:11:27.578Z,3.90
2023-03-03T09:14:02.648Z,3.75
2023-03-03T09:16:34.897Z,3.78
2023-03-03T09:19:21.466Z,3.63
2023-03-03T09:21:48.023Z,3.87
2023-03-03T09:24:30.257Z,3.89
2023-03-03T09:26:58.910Z,3.95
2023-03-03T09:29:29.045Z,4.08
2023-03-03T09:31:56.707Z,4.09
2023-03-03T09:34:27.942Z,4.24
2023-03-03T09:36:55.488Z,4.44
2023-03-03T09:39:26.800Z,4.52
2023-03-03T09:42:02.459Z,4.42
2023-03-03T09:45:27.919Z,4.08
2023-03-03T09:48:17.002Z,4.11
2023-03-03T09:51:05.304Z,4.18
2023-03-03T09:53:42.362Z,4.19
2023-03-03T09:56:34.852Z,4.15
2023-03-03T09:59:37.305Z,4.04
2023-03-03T10:02:28.720Z,4.26
2023-03-03T10:05:14.086Z,4.31
2023-03-03T10:08:36.120Z,4.44
2023-03-03T10:11:28.222Z,4.51
2023-03-03T10:14:03.839Z,4.47
2023-03-03T10:16:39.681Z,4.46
2023-03-03T10:19:50.009Z,4.53
2023-03-03T10:22:28.456Z,4.54
2023-03-03T10:25:04.875Z,4.61
2023-03-03T10:28:03.891Z,4.64
2023-03-03T10:31:05.571Z,4.68
2023-03-03T10:33:40.915Z,4.89
2023-03-03T10:36:07.981Z,4.77
2023-03-03T10:39:00.874Z,4.73
2023-03-03T10:41:27.587Z,4.69
2023-03-03T10:44:40.441Z,4.88
2023-03-03T10:47:31.434Z,5.08
2023-03-03T10:50:20.139Z,4.83
2023-03-03T10:52:53.841Z,4.81
2023-03-03T10:55:31.549Z,4.95
2023-03-03T10:58:38.492Z,5.13
2023-03-03T11:01:30.864Z,5.18
2023-03-03T11:03:57.867Z,5.42
2023-03-03T11:06:49.810Z,5.56
2023-03-03T11:09:37.576Z,5.39
2023-03-03T11:12:28.662Z,4.81
2023-03-03T11:15:13.694Z,4.81
2023-03-03T11:18:05.928Z,5.13
2023-03-03T11:20:46.182Z,5.18
2023-03-03T11:23:50.548Z,5.45
2023-03-03T11:26:46.469Z,5.50
2023-03-03T11:29:27.750Z,5.37
2023-03-03T11:32:32.292Z,5.47
2023-03-03T11:35:19.928Z,5.59
2023-03-03T11:37:51.687Z,5.80
2023-03-03T11:40:25.323Z,5.88
2023-03-03T11:42:58.496Z,5.75
2023-03-03T11:45:49.580Z,5.81
2023-03-03T11:48:34.401Z,5.74
2023-03-03T11:51:08.224Z,6.05
2023-03-03T11:53:44.241Z,6.21
2023-03-03T11:56:21.932Z,6.31
2023-03-03T11:59:10.370Z,6.54
2023-03-03T12:01:46.521Z,6.61
2023-03-03T12:04:25.053Z,6.31
2023-03-03T12:07:01.919Z,6.56
2023-03-03T12:09:54.408Z,6.64
2023-03-03T12:12:27.390Z,6.80
2023-03-03T12:15:18.955Z,6.79
2023-03-03T12:18:09.664Z,6.54
2023-03-03T12:20:54.214Z,6.55
2023-03-03T12:24:12.289Z,6.48
2023-03-03T12:27:14.480Z,6.59
2023-03-03T12:29:51.081Z,6.71
2023-03-03T12:32:56.628Z,6.69
2023-03-03T12:35:31.041Z,6.80
2023-03-03T12:38:32.662Z,6.85
2023-03-03T12:41:27.052Z,6.52
2023-03-03T12:44:26.793Z,6.34
2023-03-03T12:47:08.545Z,6.37
2023-03-03T12:50:08.403Z,6.67
2023-03-03T12:53:09.977Z,6.93
2023-03-03T12:56:07.128Z,7.08
2023-03-03T12:58:42.581Z,7.26
2023-03-03T13:01:18.000Z,7.09
2023-03-03T13:03:56.483Z,7.09
2023-03-03T13:06:30.140Z,6.96
2023-03-03T13:09:01.868Z,6.95
2023-03-03T13:11:53.950Z,6.98
2023-03-03T13:14:46.913Z,7.04
2023-03-03T13:17:26.601Z,6.84
2023-03-03T13:20:00.266Z,6.74
2023-03-03T13:22:51.872Z,6.56
2023-03-03T13:25:44.349Z,6.27
2023-03-03T13:28:16.965Z,6.11
2023-03-03T13:30:49.643Z,6.21
2023-03-03T13:33:33.505Z,6.18
2023-03-03T13:36:02.253Z,6.24
2023-03-03T13:38:36.539Z,6.06
2023-03-03T13:41:09.816Z,6.24
2023-03-03T13:43:45.765Z,6.40
2023-03-03T13:46:22.899Z,6.55
2023-03-03T13:49:14.531Z,6.67
2023-03-03T13:51:50.955Z,6.38
2023-03-03T13:54:36.235Z,6.12
2023-03-03T13:57:26.983Z,6.15
2023-03-03T14:00:13.140Z,6.32
2023-03-03T14:02:48.745Z,6.35
2023-03-03T14:05:18.543Z,6.15
2023-03-03T14:08:13.813Z,6.10
2023-03-03T14:10:48.893Z,6.12
2023-03-03T14:13:41.292Z,6.25
2023-03-03T14:16:17.116Z,6.25
2023-03-03T14:18:57.165Z,6.18
2023-03-03T14:21:43.230Z,5.99
2023-03-03T14:24:22.434Z,6.00
2023-03-03T14:26:50.496Z,6.13
2023-03-03T14:29:32.209Z,6.00
2023-03-03T14:32:01.702Z,5.98
2023-03-03T14:34:41.228Z,6.10
2023-03-03T14:37:42.118Z,6.24
2023-03-03T14:40:22.937Z,6.30
2023-03-03T14:42:52.643Z,6.29
2023-03-03T14:45:36.116Z,6.26
2023-03-03T14:48:16.526Z,6.42
2023-03-03T14:50:50.656Z,6.40
2023-03-03T14:53:21.761Z,6.45
2023-03-03T14:55:53.645Z,6.48
2023-03-03T14:58:43.254Z,6.41
2023-03-03T15:01:20.808Z,6.48
2023-03-03T15:03:57.744Z,6.44
2023-03-03T15:06:46.903Z,6.35
2023-03-03T15:09:43.173Z,6.32
2023-03-03T15:12:31.963Z,6.22
2023-03-03T15:15:04.539Z,6.28
2023-03-03T15:17:49.788Z,6.25
2023-03-03T15:20:59.185Z,6.25
2023-03-03T15:23:28.640Z,6.27
2023-03-03T15:26:03.823Z,6.24
2023-03-03T15:28:59.229Z,6.25
2023-03-03T15:31:30.098Z,6.17
2023-03-03T15:34:26.656Z,6.21
2023-03-03T15:36:54.837Z,6.15
2023-03-03T15:39:29.057Z,6.04
2023-03-03T15:42:13.882Z,6.01
2023-03-03T15:45:01.059Z,5.94
2023-03-03T15:47:57.063Z,5.91
2023-03-03T15:51:01.670Z,5.85
2023-03-03T15:53:43.748Z,5.84
2023-03-03T15:56:38.055Z,5.85
2023-03-03T15:59:26.386Z,5.86
2023-03-03T16:02:04.944Z,5.88
2023-03-03T16:04:51.652Z,5.86
2023-03-03T16:07:32.035Z,5.86
2023-03-03T16:10:03.774Z,5.80
2023-03-03T16:12:36.360Z,5.85
2023-03-03T16:15:15.583Z,5.79
2023-03-03T16:18:00.825Z,5.76
2023-03-03T16:20:43.403Z,5.76
2023-03-03T16:23:16.112Z,5.69
2023-03-03T16:25:54.781Z,5.70
2023-03-03T16:28:56.478Z,5.68
2023-03-03T16:31:36.075Z,5.67
2023-03-03T16:34:24.197Z,5.65
2023-03-03T16:37:12.627Z,5.60
2023-03-03T16:40:10.813Z,5.56
2023-03-03T16:42:37.433Z,5.54
2023-03-03T16:45:07.046Z,5.54
2023-03-03T16:47:39.099Z,5.52
2023-03-03T16:50:26.267Z,5.49
2023-03-03T16:53:11.677Z,5.39
2023-03-03T16:55:47.401Z,5.35
2023-03-03T16:58:32.149Z,5.32
2023-03-03T17:01:21.100Z,5.29
2023-03-03T17:03:59.744Z,5.44
2023-03-03T17:06:52.624Z,5.30
2023-03-03T17:09:42.073Z,5.16
2023-03-03T17:12:11.537Z,5.18
2023-03-03T17:14:53.326Z,5.10
2023-03-03T17:17:33.777Z,5.09
2023-03-03T17:20:15.359Z,5.00
2023-03-03T17:23:24.843Z,5.00
2023-03-03T17:26:19.142Z,5.30
2023-03-03T17:29:08.840Z,5.24
2023-03-03T17:31:54.131Z,5.06
2023-03-03T17:34:54.133Z,4.87
2023-03-03T17:37:58.094Z,4.86
2023-03-03T17:40:44.802Z,4.79
2023-03-03T17:43:25.154Z,4.77
2023-03-03T17:45:56.115Z,4.64
2023-03-03T17:48:49.058Z,4.56
2023-03-03T17:51:59.982Z,4.52
2023-03-03T17:54:26.365Z,4.44
2023-03-03T17:57:24.325Z,4.29
2023-03-03T18:00:32.466Z,4.24
2023-03-03T18:03:38.250Z,4.20
2023-03-03T18:06:24.096Z,4.22
2023-03-03T18:09:15.373Z,4.22
2023-03-03T18:12:23.561Z,4.18
2023-03-03T18:15:08.435Z,4.17
2023-03-03T18:18:22.387Z,4.22
2023-03-03T18:21:13.935Z,4.21
2023-03-03T18:23:42.948Z,4.22
2023-03-03T18:26:30.743Z,4.10
2023-03-03T18:29:12.408Z,4.06
2023-03-03T18:31:59.269Z,3.98
2023-03-03T18:34:39.067Z,3.89
2023-03-03T18:37:30.434Z,3.88
2023-03-03T18:40:02.891Z,3.86
2023-03-03T18:42:41.527Z,3.80
2023-03-03T18:45:20.197Z,3.80
2023-03-03T18:48:07.813Z,3.76
2023-03-03T18:50:56.147Z,3.70
2023-03-03T18:53:27.133Z,3.73
2023-03-03T18:55:56.581Z,3.72
2023-03-03T18:58:33.140Z,3.73
2023-03-03T19:01:13.142Z,3.65
2023-03-03T19:03:48.475Z,3.58
2023-03-03T19:06:52.249Z,3.54
2023-03-03T19:09:40.253Z,3.31
2023-03-03T19:12:10.726Z,3.42
2023-03-03T19:14:40.849Z,3.50
2023-03-03T19:17:16.436Z,3.44
2023-03-03T19:20:09.974Z,3.39
2023-03-03T19:22:49.126Z,3.42
2023-03-03T19:25:23.955Z,3.38
2023-03-03T19:28:25.696Z,3.35
2023-03-03T19:31:05.884Z,3.40
2023-03-03T19:33:39.147Z,3.41
2023-03-03T19:36:20.519Z,3.32
2023-03-03T19:39:06.919Z,3.31
2023-03-03T19:41:56.619Z,3.24
2023-03-03T19:44:44.529Z,2.92
2023-03-03T19:47:23.547Z,3.09
2023-03-03T19:50:21.201Z,3.14
2023-03-03T19:52:59.456Z,3.10
2023-03-03T19:55:33.353Z,3.04
2023-03-03T19:58:06.923Z,3.06
2023-03-03T20:00:43.332Z,3.05
2023-03-03T20:03:38.195Z,3.01
2023-03-03T20:06:10.569Z,3.06
2023-03-03T20:09:08.594Z,3.06
2023-03-03T20:12:02.912Z,3.06
2023-03-03T20:14:49.063Z,3.03
2023-03-03T20:17:30.825Z,2.99
2023-03-03T20:20:26.519Z,2.96
2023-03-03T20:23:16.441Z,2.98
2023-03-03T20:26:11.512Z,3.05
2023-03-03T20:29:15.089Z,3.16
2023-03-03T20:32:10.998Z,3.02
2023-03-03T20:34:56.549Z,2.96
2023-03-03T20:37:55.781Z,2.85
2023-03-03T20:40:36.930Z,2.74
2023-03-03T20:43:22.325Z,2.69
2023-03-03T20:45:58.034Z,2.84
2023-03-03T20:48:45.721Z,2.96
2023-03-03T20:51:37.606Z,3.02
2023-03-03T20:54:13.362Z,2.99
2023-03-03T20:57:06.658Z,3.03
2023-03-03T20:59:41.389Z,3.11
2023-03-03T21:02:28.303Z,3.08
2023-03-03T21:05:18.825Z,2.73
2023-03-03T21:08:03.014Z,3.02
2023-03-03T21:10:37.458Z,3.11
2023-03-03T21:13:25.674Z,3.12
2023-03-03T21:16:02.426Z,3.01
2023-03-03T21:18:29.590Z,3.12
2023-03-03T21:20:56.276Z,3.24
2023-03-03T21:23:23.085Z,3.25
2023-03-03T21:25:54.625Z,3.32
2023-03-03T21:28:33.718Z,3.29
2023-03-03T21:31:01.196Z,3.28
2023-03-03T21:33:51.018Z,3.33
2023-03-03T21:36:18.960Z,3.35
2023-03-03T21:38:46.808Z,3.40
2023-03-03T21:41:15.384Z,3.28
2023-03-03T21:43:44.828Z,3.29
2023-03-03T21:46:12.516Z,3.31
2023-03-03T21:48:42.890Z,3.48
2023-03-03T21:51:12.024Z,3.56
2023-03-03T21:53:38.645Z,3.54
2023-03-03T21:56:05.639Z,3.61
2023-03-03T21:58:32.445Z,3.59
2023-03-03T22:00:59.140Z,3.54
2023-03-03T22:03:25.907Z,3.55
2023-03-03T22:05:53.652Z,3.50
2023-03-03T22:08:23.273Z,3.50
2023-03-03T22:10:53.868Z,3.60
2023-03-03T22:13:20.596Z,3.62
2023-03-03T22:15:48.037Z,3.66
2023-03-03T22:18:18.172Z,3.68
2023-03-03T22:20:46.326Z,3.70
2023-03-03T22:23:14.658Z,3.77
2023-03-03T22:25:41.659Z,3.78
2023-03-03T22:28:08.602Z,3.73
2023-03-03T22:30:36.509Z,3.73
2023-03-03T22:33:03.412Z,3.77
2023-03-03T22:35:30.198Z,3.75
2023-03-03T22:37:56.934Z,3.81
2023-03-03T22:40:23.903Z,3.71
2023-03-03T22:42:50.677Z,3.67
2023-03-03T22:45:17.320Z,3.71
2023-03-03T22:47:43.912Z,3.76
2023-03-03T22:50:11.516Z,3.79
2023-03-03T22:52:38.137Z,3.81
2023-03-03T22:55:05.629Z,3.76
2023-03-03T22:57:32.380Z,3.78
2023-03-03T22:59:59.983Z,3.82
2023-03-03T23:02:26.694Z,3.83
2023-03-03T23:04:58.125Z,3.71
2023-03-03T23:07:26.296Z,3.77
2023-03-03T23:09:53.109Z,3.82
2023-03-03T23:12:19.909Z,3.92
2023-03-03T23:14:46.594Z,3.95
2023-03-03T23:17:13.231Z,3.92
2023-03-03T23:19:39.840Z,3.86
2023-03-03T23:22:06.527Z,3.85
2023-03-03T23:24:33.280Z,3.88
2023-03-03T23:27:00.700Z,3.91
2023-03-03T23:29:27.359Z,3.86
2023-03-03T23:31:54.184Z,3.83
2023-03-03T23:34:21.000Z,3.96
2023-03-03T23:36:47.688Z,4.03
2023-03-03T23:39:15.216Z,4.03
2023-03-03T23:41:42.026Z,3.99
2023-03-03T23:44:08.776Z,4.05
2023-03-03T23:46:35.604Z,4.04
2023-03-03T23:49:02.414Z,4.05
2023-03-03T23:51:29.133Z,4.09
2023-03-03T23:53:56.414Z,4.05
2023-03-03T23:56:23.027Z,4.12
2023-03-03T23:58:49.697Z,4.10
